Terminal Aerodrome Forecast
Issued by NWS Grand Forks, ND

Home | Current Version | Previous Version | Text Only | Print | Product List | Glossary Off
Versions: 1 2 3 4 5 6 7 8 9 10 11 12 13 14 15 16 17 18 19 20 21

000
FTUS43 KFGF 251123
TAFGFK
TAF
KGFK 251123Z 2512/2612 15013G22KT P6SM FEW060 SCT200
     FM251600 17018G30KT P6SM BKN070
     FM260000 17014KT P6SM BKN100
     FM260700 19007KT P6SM SCT200=

USA.gov is the U.S. government's official web portal to all federal, state and local government web resources and services.